Terminal Aerodrome Forecast
Issued by NWS

Home | Current Version | Previous Version | Text Only | Print | Product List | Glossary On
Versions: 1 2 3 4 5 6 7 8 9 10 11 12 13 14 15 16 17 18 19 20
000
FTUS44 KCRP 291121
TAFALI
TAF
KALI 291121Z 2912/3012 13008KT 5SM BR BKN012 OVC020
      TEMPO 2912/2914 3SM BR BKN009
     FM291500 16016G23KT 5SM HZ BKN015 OVC025
     FM291900 15015G21KT P6SM BKN035
     FM300300 14009KT 5SM BR BKN008 OVC015
     FM300800 15006KT 3SM BR OVC006=

USA.gov is the U.S. government's official web portal to all federal, state and local government web resources and services.